Current Weather

Brenham Municipal Airport

Brenham Municipal Airport, Texas (K11R)

Report from: Saturday, February 4, 2023 8:55 PM CST
Current time: Saturday, February 4, 2023 9:42 PM CST

Nearby weather
Weather history
Weather forecast

Temperature12.5°C (54.5°F)
Dew point8.4°C (47.1°F)
Winds Calm
Visibility10 mi. (16.1 km)
Clouds Sky clear
Altimeter30.26 in.Hg (1025 mB)
Relative humidity76 %
Density altitude-527 ft. (-161 m)
Remarks Fully automated report
Automated weather observing station with precipitation discriminator
Flight conditions Visual Meteorological Conditions
Raw dataK11R 050255Z AUTO 00000KT 10SM CLR 13/08 A3026 RMK AO2 T01250084
An unhandled exception has occurred. See browser dev tools for details. Reload 🗙